createdAt,value
2018-06-28T00:02:26.296Z,55.70
2018-06-28T00:07:17.945Z,55.80
2018-06-28T00:12:08.849Z,55.80
2018-06-28T00:17:00.491Z,55.70
2018-06-28T00:21:51.388Z,55.70
2018-06-28T00:26:43.032Z,55.80
2018-06-28T00:31:34.676Z,55.50
2018-06-28T00:36:26.322Z,55.40
2018-06-28T00:41:17.220Z,55.40
2018-06-28T00:46:08.858Z,55.70
2018-06-28T00:51:00.493Z,55.80
2018-06-28T00:55:52.132Z,56.00
2018-06-28T01:00:43.792Z,56.00
2018-06-28T01:05:34.706Z,56.00
2018-06-28T01:10:25.606Z,55.90
2018-06-28T01:15:17.243Z,56.10
2018-06-28T01:20:08.881Z,56.00
2018-06-28T01:24:59.781Z,56.00
2018-06-28T01:29:51.426Z,56.20
2018-06-28T01:34:43.059Z,56.00
2018-06-28T01:39:34.703Z,56.10
2018-06-28T01:44:26.364Z,56.10
2018-06-28T01:49:17.250Z,56.00
2018-06-28T01:54:08.889Z,55.90
2018-06-28T01:59:00.527Z,56.10
2018-06-28T02:03:52.171Z,56.20
2018-06-28T02:08:43.094Z,56.20
2018-06-28T02:13:34.021Z,56.10
2018-06-28T02:18:24.923Z,56.20
2018-06-28T02:23:15.810Z,56.20
2018-06-28T02:28:08.179Z,56.20
2018-06-28T02:32:59.085Z,56.20
2018-06-28T02:37:49.984Z,56.30
2018-06-28T02:42:40.891Z,56.30
2018-06-28T02:47:31.798Z,56.30
2018-06-28T02:52:22.691Z,56.30
2018-06-28T02:57:13.588Z,56.40
2018-06-28T03:02:04.528Z,56.40
2018-06-28T03:06:55.421Z,56.50
2018-06-28T03:11:47.055Z,56.70
2018-06-28T03:16:38.704Z,56.60
2018-06-28T03:21:29.609Z,56.60
2018-06-28T03:26:21.261Z,56.60
2018-06-28T03:31:12.168Z,56.60
2018-06-28T03:36:03.820Z,56.80
2018-06-28T03:40:54.715Z,56.70
2018-06-28T03:45:46.352Z,56.90
2018-06-28T03:50:37.988Z,57.00
2018-06-28T03:55:29.664Z,57.00
2018-06-28T04:00:20.581Z,57.00
2018-06-28T04:05:11.477Z,57.00
2018-06-28T04:10:02.384Z,57.00
2018-06-28T04:14:54.044Z,57.10
2018-06-28T04:19:44.948Z,57.10
2018-06-28T04:24:35.848Z,57.20
2018-06-28T04:29:27.496Z,57.90
2018-06-28T04:34:19.136Z,58.10
2018-06-28T04:39:10.027Z,58.00
2018-06-28T04:44:00.960Z,57.90
2018-06-28T04:48:52.611Z,58.20
2018-06-28T04:53:43.516Z,58.20
2018-06-28T04:58:35.177Z,58.10
2018-06-28T05:03:26.076Z,58.10
2018-06-28T05:08:17.719Z,58.80
2018-06-28T05:13:08.692Z,58.80
2018-06-28T05:17:59.594Z,59.10
2018-06-28T05:22:50.478Z,59.20
2018-06-28T05:27:41.388Z,59.30
2018-06-28T05:32:33.019Z,60.00
2018-06-28T05:37:24.675Z,59.90
2018-06-28T05:42:15.567Z,59.90
2018-06-28T05:52:25.004Z,60.00
2018-06-28T05:57:15.904Z,60.10
2018-06-28T06:02:06.821Z,60.20
2018-06-28T06:06:57.707Z,60.20
2018-06-28T06:11:49.339Z,60.50
2018-06-28T06:16:40.983Z,60.60
2018-06-28T06:21:32.636Z,60.60
2018-06-28T06:26:23.551Z,60.60
2018-06-28T06:31:14.447Z,60.70
2018-06-28T06:36:06.079Z,61.10
2018-06-28T06:40:57.714Z,61.00
2018-06-28T06:45:49.363Z,60.90
2018-06-28T06:50:40.995Z,61.00
2018-06-28T06:55:32.630Z,60.90
2018-06-28T07:00:24.324Z,61.00
2018-06-28T07:05:15.224Z,61.00
2018-06-28T07:10:06.150Z,61.00
2018-06-28T07:14:57.067Z,60.90
2018-06-28T07:19:48.071Z,61.00
2018-06-28T07:24:38.971Z,61.10
2018-06-28T07:29:29.859Z,61.00
2018-06-28T07:34:20.749Z,61.20
2018-06-28T07:39:11.657Z,61.30
2018-06-28T07:44:02.593Z,61.30
2018-06-28T07:48:53.482Z,59.00
2018-06-28T07:53:44.430Z,58.00
2018-06-28T07:58:35.351Z,57.40
2018-06-28T08:03:26.248Z,55.70
2018-06-28T08:08:17.156Z,56.30
2018-06-28T08:13:08.068Z,56.90
2018-06-28T08:17:58.979Z,57.50
2018-06-28T08:22:49.879Z,57.80
2018-06-28T08:27:41.520Z,58.00
2018-06-28T08:32:33.163Z,58.00
2018-06-28T08:37:31.119Z,57.90
2018-06-28T08:42:22.010Z,57.80
2018-06-28T08:47:13.653Z,57.50
2018-06-28T08:52:04.655Z,57.50
2018-06-28T08:56:55.569Z,57.50
2018-06-28T09:01:46.451Z,57.40
2018-06-28T09:06:37.351Z,57.30
2018-06-28T09:11:28.983Z,56.80
2018-06-28T09:16:19.879Z,57.30
2018-06-28T09:21:10.836Z,56.60
2018-06-28T09:26:02.463Z,56.30
2018-06-28T09:30:54.095Z,56.00
2018-06-28T09:35:45.740Z,55.90
2018-06-28T09:40:37.380Z,55.70
2018-06-28T09:45:29.010Z,55.20
2018-06-28T09:50:20.648Z,55.10
2018-06-28T09:55:12.292Z,54.70
2018-06-28T10:00:03.184Z,54.70
2018-06-28T10:04:54.083Z,54.50
2018-06-28T10:09:44.980Z,54.90
2018-06-28T10:14:35.916Z,54.00
2018-06-28T10:19:26.770Z,54.10
2018-06-28T10:24:18.417Z,53.40
2018-06-28T10:29:09.315Z,53.40
2018-06-28T10:34:00.217Z,53.50
2018-06-28T10:38:51.145Z,53.60
2018-06-28T10:43:42.044Z,53.50
2018-06-28T10:48:32.939Z,53.30
2018-06-28T10:53:23.913Z,52.90
2018-06-28T10:58:15.553Z,52.70
2018-06-28T11:03:07.199Z,53.00
2018-06-28T11:07:58.095Z,53.00
2018-06-28T11:12:49.739Z,52.50
2018-06-28T11:17:41.375Z,52.10
2018-06-28T11:22:33.011Z,51.60
2018-06-28T11:27:24.684Z,51.10
2018-06-28T11:32:15.589Z,51.10
2018-06-28T11:37:06.491Z,50.50
2018-06-28T11:41:58.145Z,49.50
2018-06-28T11:46:49.032Z,49.60
2018-06-28T11:51:40.708Z,49.20
2018-06-28T11:56:31.607Z,49.20
2018-06-28T12:01:22.558Z,49.20
2018-06-28T12:06:13.448Z,48.60
2018-06-28T12:11:04.357Z,48.50
2018-06-28T12:15:55.260Z,48.20
2018-06-28T12:20:46.900Z,47.20
2018-06-28T12:25:38.542Z,46.80
2018-06-28T12:30:30.179Z,46.60
2018-06-28T12:35:21.819Z,46.50
2018-06-28T12:40:12.711Z,46.50
2018-06-28T12:45:03.611Z,46.20
2018-06-28T12:49:54.494Z,46.10
2018-06-28T12:54:45.393Z,46.00
2018-06-28T12:59:36.295Z,45.90
2018-06-28T13:04:27.939Z,46.20
2018-06-28T13:09:19.575Z,45.60
2018-06-28T13:14:11.216Z,45.60
2018-06-28T13:19:02.113Z,45.50
2018-06-28T13:23:53.777Z,45.00
2018-06-28T13:28:44.678Z,45.00
2018-06-28T13:33:36.322Z,44.80
2018-06-28T13:38:27.211Z,44.80
2018-06-28T13:43:18.100Z,44.30
2018-06-28T13:48:09.010Z,44.10
2018-06-28T13:52:59.939Z,44.20
2018-06-28T13:57:50.932Z,44.30
2018-06-28T14:02:41.822Z,44.70
2018-06-28T14:07:33.455Z,45.20
2018-06-28T14:12:25.083Z,45.10
2018-06-28T14:17:16.728Z,45.10
2018-06-28T14:22:08.408Z,45.20
2018-06-28T14:26:59.286Z,45.10
2018-06-28T14:31:50.940Z,45.40
2018-06-28T14:36:41.848Z,45.40
2018-06-28T14:41:32.749Z,45.30
2018-06-28T14:46:24.401Z,45.70
2018-06-28T14:51:15.300Z,45.70
2018-06-28T14:56:06.933Z,46.00
2018-06-28T15:00:58.576Z,46.40
2018-06-28T15:05:50.212Z,46.50
2018-06-28T15:10:41.847Z,46.60
2018-06-28T15:15:33.489Z,46.60
2018-06-28T15:20:25.114Z,46.30
2018-06-28T15:25:16.756Z,46.30
2018-06-28T15:30:08.387Z,46.40
2018-06-28T15:35:00.040Z,46.50
2018-06-28T15:39:50.930Z,46.40
2018-06-28T15:44:42.563Z,46.60
2018-06-28T15:49:33.460Z,46.60
2018-06-28T15:54:24.362Z,46.40
2018-06-28T15:59:15.271Z,46.60
2018-06-28T16:04:06.171Z,46.50
2018-06-28T16:08:57.066Z,46.50
2018-06-28T16:13:48.707Z,45.80
2018-06-28T16:18:40.339Z,46.40
2018-06-28T16:23:31.978Z,45.50
2018-06-28T16:28:22.883Z,45.50
2018-06-28T16:33:14.506Z,45.60
2018-06-28T16:38:05.400Z,45.60
2018-06-28T16:42:57.345Z,45.70
2018-06-28T16:47:48.239Z,45.70
2018-06-28T16:52:47.220Z,45.70
2018-06-28T16:57:38.130Z,45.80
2018-06-28T17:02:29.766Z,46.10
2018-06-28T17:07:21.407Z,46.10
2018-06-28T17:12:13.031Z,46.30
2018-06-28T17:17:04.686Z,46.30
2018-06-28T17:21:56.305Z,46.20
2018-06-28T17:26:47.948Z,46.10
2018-06-28T17:31:39.596Z,46.30
2018-06-28T17:36:30.500Z,46.20
2018-06-28T17:41:21.407Z,46.20
2018-06-28T17:46:13.057Z,46.40
2018-06-28T17:51:04.015Z,46.30
2018-06-28T17:55:55.612Z,46.50
2018-06-28T18:00:46.506Z,46.50
2018-06-28T18:05:37.422Z,46.20
2018-06-28T18:10:29.072Z,46.40
2018-06-28T18:15:20.754Z,46.50
2018-06-28T18:20:11.653Z,46.40
2018-06-28T18:25:02.538Z,46.40
2018-06-28T18:29:54.182Z,46.50
2018-06-28T18:34:45.818Z,46.50
2018-06-28T18:39:37.483Z,46.50
2018-06-28T18:44:28.406Z,46.50
2018-06-28T18:49:19.292Z,46.40
2018-06-28T18:54:10.927Z,46.20
2018-06-28T18:59:02.567Z,46.00
2018-06-28T19:03:53.474Z,46.00
2018-06-28T19:08:45.122Z,46.00
2018-06-28T19:13:36.032Z,46.00
2018-06-28T19:18:27.675Z,45.90
2018-06-28T19:28:37.878Z,45.80
2018-06-28T19:33:28.783Z,45.90
2018-06-28T19:38:20.465Z,46.40
2018-06-28T19:43:12.054Z,46.60
2018-06-28T19:48:03.683Z,46.80
2018-06-28T19:52:55.327Z,47.00
2018-06-28T19:57:46.968Z,47.10
2018-06-28T20:02:44.874Z,47.10
2018-06-28T20:07:35.795Z,47.00
2018-06-28T20:12:26.694Z,47.10
2018-06-28T20:17:32.575Z,47.80
2018-06-28T20:22:23.473Z,47.60
2018-06-28T20:27:30.091Z,48.00
2018-06-28T20:37:41.844Z,48.10
2018-06-28T20:42:32.744Z,48.30
2018-06-28T20:47:23.639Z,48.30
2018-06-28T20:52:15.266Z,48.50
2018-06-28T20:57:06.902Z,48.60
2018-06-28T21:01:58.538Z,48.70
2018-06-28T21:06:50.167Z,48.90
2018-06-28T21:11:41.794Z,48.90
2018-06-28T21:16:32.691Z,48.80
2018-06-28T21:21:23.587Z,49.00
2018-06-28T21:26:14.503Z,49.00
2018-06-28T21:31:05.439Z,49.10
2018-06-28T21:35:56.334Z,49.20
2018-06-28T21:40:47.241Z,49.30
2018-06-28T21:45:38.134Z,49.30
2018-06-28T21:50:29.783Z,49.60
2018-06-28T21:55:20.773Z,49.50
2018-06-28T22:00:11.583Z,49.60
2018-06-28T22:05:02.487Z,49.70
2018-06-28T22:09:53.395Z,49.70
2018-06-28T22:14:44.305Z,49.70
2018-06-28T22:19:35.195Z,49.90
2018-06-28T22:24:26.110Z,50.00
2018-06-28T22:29:17.034Z,50.10
2018-06-28T22:34:07.950Z,50.20
2018-06-28T22:38:58.839Z,50.30
2018-06-28T22:43:50.484Z,50.60
2018-06-28T22:48:42.115Z,50.60
2018-06-28T22:53:33.752Z,50.70
2018-06-28T22:58:25.386Z,50.70
2018-06-28T23:03:17.020Z,50.80
2018-06-28T23:08:08.651Z,50.70
2018-06-28T23:12:59.543Z,50.60
2018-06-28T23:17:50.439Z,51.30
2018-06-28T23:22:41.335Z,50.90
2018-06-28T23:27:32.232Z,50.90
2018-06-28T23:32:23.862Z,51.10
2018-06-28T23:37:15.491Z,51.10
2018-06-28T23:42:07.167Z,50.80
2018-06-28T23:46:58.054Z,51.20
2018-06-28T23:51:49.682Z,51.40
2018-06-28T23:56:40.567Z,51.30
